sensor_id;sensor_type;location;lat;lon;timestamp;temperature;humidity
8593;DHT22;4334;49.982;8.398;2022-11-04T00:01:54;14.50;99.90
8593;DHT22;4334;49.982;8.398;2022-11-04T00:04:23;11.10;99.90
8593;DHT22;4334;49.982;8.398;2022-11-04T00:06:52;11.10;99.90
8593;DHT22;4334;49.982;8.398;2022-11-04T00:09:20;11.20;99.90
8593;DHT22;4334;49.982;8.398;2022-11-04T00:11:48;11.10;99.90
8593;DHT22;4334;49.982;8.398;2022-11-04T00:14:34;11.10;99.90
8593;DHT22;4334;49.982;8.398;2022-11-04T00:17:01;11.10;99.90
8593;DHT22;4334;49.982;8.398;2022-11-04T00:19:49;11.10;99.90
8593;DHT22;4334;49.982;8.398;2022-11-04T00:22:34;11.00;99.90
8593;DHT22;4334;49.982;8.398;2022-11-04T00:25:19;12.20;99.90
8593;DHT22;4334;49.982;8.398;2022-11-04T00:28:07;11.00;99.90
8593;DHT22;4334;49.982;8.398;2022-11-04T00:30:53;11.00;99.90
8593;DHT22;4334;49.982;8.398;2022-11-04T00:33:20;11.00;99.90
8593;DHT22;4334;49.982;8.398;2022-11-04T00:35:54;11.00;99.90
8593;DHT22;4334;49.982;8.398;2022-11-04T00:38:23;11.00;99.90
8593;DHT22;4334;49.982;8.398;2022-11-04T00:40:50;12.80;99.90
8593;DHT22;4334;49.982;8.398;2022-11-04T00:43:17;10.90;99.90
8593;DHT22;4334;49.982;8.398;2022-11-04T00:45:44;10.90;99.90
8593;DHT22;4334;49.982;8.398;2022-11-04T00:48:11;10.90;99.90
8593;DHT22;4334;49.982;8.398;2022-11-04T00:50:38;10.90;99.90
8593;DHT22;4334;49.982;8.398;2022-11-04T00:53:06;10.80;99.90
8593;DHT22;4334;49.982;8.398;2022-11-04T00:55:33;12.30;99.90
8593;DHT22;4334;49.982;8.398;2022-11-04T00:58:00;10.80;99.90
8593;DHT22;4334;49.982;8.398;2022-11-04T01:00:27;10.80;99.90
8593;DHT22;4334;49.982;8.398;2022-11-04T01:02:55;10.80;99.90
8593;DHT22;4334;49.982;8.398;2022-11-04T01:05:24;10.90;99.90
8593;DHT22;4334;49.982;8.398;2022-11-04T01:07:51;10.80;99.90
8593;DHT22;4334;49.982;8.398;2022-11-04T01:10:19;10.90;99.90
8593;DHT22;4334;49.982;8.398;2022-11-04T01:12:46;11.00;99.90
8593;DHT22;4334;49.982;8.398;2022-11-04T01:15:13;11.00;99.90
8593;DHT22;4334;49.982;8.398;2022-11-04T01:17:40;11.00;99.90
8593;DHT22;4334;49.982;8.398;2022-11-04T01:20:07;11.00;99.90
8593;DHT22;4334;49.982;8.398;2022-11-04T01:22:34;11.00;99.90
8593;DHT22;4334;49.982;8.398;2022-11-04T01:25:01;11.00;99.90
8593;DHT22;4334;49.982;8.398;2022-11-04T01:27:29;10.90;99.90
8593;DHT22;4334;49.982;8.398;2022-11-04T01:29:56;10.90;99.90
8593;DHT22;4334;49.982;8.398;2022-11-04T01:32:23;10.80;99.90
8593;DHT22;4334;49.982;8.398;2022-11-04T01:34:50;12.80;99.90
8593;DHT22;4334;49.982;8.398;2022-11-04T01:37:17;13.10;99.90
8593;DHT22;4334;49.982;8.398;2022-11-04T01:39:43;10.80;99.90
8593;DHT22;4334;49.982;8.398;2022-11-04T01:42:13;10.80;99.90
8593;DHT22;4334;49.982;8.398;2022-11-04T01:44:53;10.80;99.90
8593;DHT22;4334;49.982;8.398;2022-11-04T01:47:23;10.70;99.90
8593;DHT22;4334;49.982;8.398;2022-11-04T01:49:54;10.70;99.90
8593;DHT22;4334;49.982;8.398;2022-11-04T01:52:25;10.70;99.90
8593;DHT22;4334;49.982;8.398;2022-11-04T01:54:54;10.70;99.90
8593;DHT22;4334;49.982;8.398;2022-11-04T01:57:29;10.70;99.90
8593;DHT22;4334;49.982;8.398;2022-11-04T02:00:00;10.70;99.90
8593;DHT22;4334;49.982;8.398;2022-11-04T02:02:28;11.50;99.90
8593;DHT22;4334;49.982;8.398;2022-11-04T02:04:56;10.70;99.90
8593;DHT22;4334;49.982;8.398;2022-11-04T02:07:23;10.70;99.90
8593;DHT22;4334;49.982;8.398;2022-11-04T02:09:50;10.60;99.90
8593;DHT22;4334;49.982;8.398;2022-11-04T02:12:17;10.60;99.90
8593;DHT22;4334;49.982;8.398;2022-11-04T02:15:04;10.50;99.90
8593;DHT22;4334;49.982;8.398;2022-11-04T02:17:43;10.50;99.90
8593;DHT22;4334;49.982;8.398;2022-11-04T02:20:25;10.40;99.90
8593;DHT22;4334;49.982;8.398;2022-11-04T02:23:23;10.40;99.90
8593;DHT22;4334;49.982;8.398;2022-11-04T02:26:11;10.40;99.90
8593;DHT22;4334;49.982;8.398;2022-11-04T02:31:50;10.30;99.90
8593;DHT22;4334;49.982;8.398;2022-11-04T02:34:25;10.50;99.90
8593;DHT22;4334;49.982;8.398;2022-11-04T02:37:01;10.20;99.90
8593;DHT22;4334;49.982;8.398;2022-11-04T02:39:37;10.20;99.90
8593;DHT22;4334;49.982;8.398;2022-11-04T02:42:11;10.20;99.90
8593;DHT22;4334;49.982;8.398;2022-11-04T02:44:45;10.20;99.90
8593;DHT22;4334;49.982;8.398;2022-11-04T02:47:20;10.20;99.90
8593;DHT22;4334;49.982;8.398;2022-11-04T02:49:53;10.20;99.90
8593;DHT22;4334;49.982;8.398;2022-11-04T02:52:25;10.10;99.90
8593;DHT22;4334;49.982;8.398;2022-11-04T02:54:58;10.10;99.90
8593;DHT22;4334;49.982;8.398;2022-11-04T02:57:29;10.20;99.90
8593;DHT22;4334;49.982;8.398;2022-11-04T03:00:00;10.20;99.90
8593;DHT22;4334;49.982;8.398;2022-11-04T03:02:32;10.10;99.90
8593;DHT22;4334;49.982;8.398;2022-11-04T03:05:01;10.00;99.90
8593;DHT22;4334;49.982;8.398;2022-11-04T03:07:32;10.00;99.90
8593;DHT22;4334;49.982;8.398;2022-11-04T03:10:03;10.10;99.90
8593;DHT22;4334;49.982;8.398;2022-11-04T03:12:36;10.00;99.90
8593;DHT22;4334;49.982;8.398;2022-11-04T03:15:06;10.00;99.90
8593;DHT22;4334;49.982;8.398;2022-11-04T03:17:43;9.90;99.90
8593;DHT22;4334;49.982;8.398;2022-11-04T03:20:16;9.90;99.90
8593;DHT22;4334;49.982;8.398;2022-11-04T03:22:43;9.90;99.90
8593;DHT22;4334;49.982;8.398;2022-11-04T03:25:10;10.00;99.90
8593;DHT22;4334;49.982;8.398;2022-11-04T03:27:44;10.00;99.90
8593;DHT22;4334;49.982;8.398;2022-11-04T03:30:15;9.90;99.90
8593;DHT22;4334;49.982;8.398;2022-11-04T03:32:50;9.80;99.90
8593;DHT22;4334;49.982;8.398;2022-11-04T03:35:20;9.70;99.90
8593;DHT22;4334;49.982;8.398;2022-11-04T03:37:47;9.70;99.90
8593;DHT22;4334;49.982;8.398;2022-11-04T03:40:15;9.60;99.90
8593;DHT22;4334;49.982;8.398;2022-11-04T03:42:45;9.60;99.90
8593;DHT22;4334;49.982;8.398;2022-11-04T03:45:18;9.50;99.90
8593;DHT22;4334;49.982;8.398;2022-11-04T03:47:47;9.40;99.90
8593;DHT22;4334;49.982;8.398;2022-11-04T03:50:19;9.40;99.90
8593;DHT22;4334;49.982;8.398;2022-11-04T03:52:49;9.50;99.90
8593;DHT22;4334;49.982;8.398;2022-11-04T03:55:15;9.50;99.90
8593;DHT22;4334;49.982;8.398;2022-11-04T03:57:49;9.40;99.90
8593;DHT22;4334;49.982;8.398;2022-11-04T04:00:19;9.30;99.90
8593;DHT22;4334;49.982;8.398;2022-11-04T04:02:58;11.00;99.90
8593;DHT22;4334;49.982;8.398;2022-11-04T04:05:29;9.20;99.90
8593;DHT22;4334;49.982;8.398;2022-11-04T04:08:12;9.10;99.90
8593;DHT22;4334;49.982;8.398;2022-11-04T04:10:44;9.10;99.90
8593;DHT22;4334;49.982;8.398;2022-11-04T04:13:22;9.10;99.90
8593;DHT22;4334;49.982;8.398;2022-11-04T04:15:55;9.10;99.90
8593;DHT22;4334;49.982;8.398;2022-11-04T04:18:32;9.10;99.90
8593;DHT22;4334;49.982;8.398;2022-11-04T04:21:03;9.10;99.90
8593;DHT22;4334;49.982;8.398;2022-11-04T04:23:33;9.00;99.90
8593;DHT22;4334;49.982;8.398;2022-11-04T04:26:20;8.90;99.90
8593;DHT22;4334;49.982;8.398;2022-11-04T04:29:06;8.80;99.90
8593;DHT22;4334;49.982;8.398;2022-11-04T04:31:35;8.90;99.90
8593;DHT22;4334;49.982;8.398;2022-11-04T04:34:18;8.80;99.90
8593;DHT22;4334;49.982;8.398;2022-11-04T04:36:51;8.80;99.90
8593;DHT22;4334;49.982;8.398;2022-11-04T04:39:22;8.80;99.90
8593;DHT22;4334;49.982;8.398;2022-11-04T04:42:08;8.70;99.90
8593;DHT22;4334;49.982;8.398;2022-11-04T04:44:53;8.60;99.90
8593;DHT22;4334;49.982;8.398;2022-11-04T04:47:33;8.50;99.90
8593;DHT22;4334;49.982;8.398;2022-11-04T04:50:02;8.50;99.90
8593;DHT22;4334;49.982;8.398;2022-11-04T04:52:40;8.50;99.90
8593;DHT22;4334;49.982;8.398;2022-11-04T04:55:08;8.60;99.90
8593;DHT22;4334;49.982;8.398;2022-11-04T04:57:38;8.60;99.90
8593;DHT22;4334;49.982;8.398;2022-11-04T05:00:07;8.70;99.90
8593;DHT22;4334;49.982;8.398;2022-11-04T05:02:35;8.70;99.90
8593;DHT22;4334;49.982;8.398;2022-11-04T05:05:04;8.80;99.90
8593;DHT22;4334;49.982;8.398;2022-11-04T05:07:40;8.80;99.90
8593;DHT22;4334;49.982;8.398;2022-11-04T05:10:09;8.70;99.90
8593;DHT22;4334;49.982;8.398;2022-11-04T05:12:37;8.80;99.90
8593;DHT22;4334;49.982;8.398;2022-11-04T05:15:21;8.80;99.90
8593;DHT22;4334;49.982;8.398;2022-11-04T05:17:53;8.80;99.90
8593;DHT22;4334;49.982;8.398;2022-11-04T05:20:22;11.50;99.90
8593;DHT22;4334;49.982;8.398;2022-11-04T05:22:49;8.90;99.90
8593;DHT22;4334;49.982;8.398;2022-11-04T05:25:16;9.00;99.90
8593;DHT22;4334;49.982;8.398;2022-11-04T05:27:43;9.00;99.90
8593;DHT22;4334;49.982;8.398;2022-11-04T05:30:10;9.00;99.90
8593;DHT22;4334;49.982;8.398;2022-11-04T05:32:37;9.00;99.90
8593;DHT22;4334;49.982;8.398;2022-11-04T05:35:05;9.70;99.90
8593;DHT22;4334;49.982;8.398;2022-11-04T05:37:33;9.00;99.90
8593;DHT22;4334;49.982;8.398;2022-11-04T05:40:00;9.00;99.90
8593;DHT22;4334;49.982;8.398;2022-11-04T05:42:27;9.00;99.90
8593;DHT22;4334;49.982;8.398;2022-11-04T05:44:55;8.90;99.90
8593;DHT22;4334;49.982;8.398;2022-11-04T05:47:21;8.80;99.90
8593;DHT22;4334;49.982;8.398;2022-11-04T05:49:48;8.80;99.90
8593;DHT22;4334;49.982;8.398;2022-11-04T05:52:15;8.70;99.90
8593;DHT22;4334;49.982;8.398;2022-11-04T05:54:43;8.80;99.90
8593;DHT22;4334;49.982;8.398;2022-11-04T05:57:10;8.80;99.90
8593;DHT22;4334;49.982;8.398;2022-11-04T05:59:37;8.90;99.90
8593;DHT22;4334;49.982;8.398;2022-11-04T06:02:04;11.70;99.90
8593;DHT22;4334;49.982;8.398;2022-11-04T06:04:30;8.90;99.90
8593;DHT22;4334;49.982;8.398;2022-11-04T06:06:57;9.00;99.90
8593;DHT22;4334;49.982;8.398;2022-11-04T06:09:24;8.90;99.90
8593;DHT22;4334;49.982;8.398;2022-11-04T06:12:07;8.90;99.90
8593;DHT22;4334;49.982;8.398;2022-11-04T06:14:34;8.90;99.90
8593;DHT22;4334;49.982;8.398;2022-11-04T06:17:01;8.90;99.90
8593;DHT22;4334;49.982;8.398;2022-11-04T06:19:28;8.80;99.90
8593;DHT22;4334;49.982;8.398;2022-11-04T06:21:55;8.80;99.90
8593;DHT22;4334;49.982;8.398;2022-11-04T06:24:22;8.80;99.90
8593;DHT22;4334;49.982;8.398;2022-11-04T06:26:49;8.80;99.90
8593;DHT22;4334;49.982;8.398;2022-11-04T06:29:18;8.80;99.90
8593;DHT22;4334;49.982;8.398;2022-11-04T06:31:44;8.70;99.90
8593;DHT22;4334;49.982;8.398;2022-11-04T06:34:11;8.70;99.90
8593;DHT22;4334;49.982;8.398;2022-11-04T06:36:38;8.80;99.90
8593;DHT22;4334;49.982;8.398;2022-11-04T06:39:05;8.90;99.90
8593;DHT22;4334;49.982;8.398;2022-11-04T06:42:04;8.80;99.90
8593;DHT22;4334;49.982;8.398;2022-11-04T06:44:37;8.80;99.90
8593;DHT22;4334;49.982;8.398;2022-11-04T06:47:04;10.20;99.90
8593;DHT22;4334;49.982;8.398;2022-11-04T06:49:31;8.90;99.90
8593;DHT22;4334;49.982;8.398;2022-11-04T06:51:57;9.00;99.90
8593;DHT22;4334;49.982;8.398;2022-11-04T06:54:26;9.10;99.90
8593;DHT22;4334;49.982;8.398;2022-11-04T06:56:53;9.10;99.90
8593;DHT22;4334;49.982;8.398;2022-11-04T06:59:20;9.20;99.90
8593;DHT22;4334;49.982;8.398;2022-11-04T07:01:50;9.20;99.90
8593;DHT22;4334;49.982;8.398;2022-11-04T07:04:19;9.20;99.90
8593;DHT22;4334;49.982;8.398;2022-11-04T07:07:05;9.30;99.90
8593;DHT22;4334;49.982;8.398;2022-11-04T07:09:32;9.30;99.90
8593;DHT22;4334;49.982;8.398;2022-11-04T07:11:59;9.30;99.90
8593;DHT22;4334;49.982;8.398;2022-11-04T07:14:26;9.30;99.90
8593;DHT22;4334;49.982;8.398;2022-11-04T07:16:54;9.30;99.90
8593;DHT22;4334;49.982;8.398;2022-11-04T07:19:21;9.40;99.90
8593;DHT22;4334;49.982;8.398;2022-11-04T07:21:48;10.20;99.90
8593;DHT22;4334;49.982;8.398;2022-11-04T07:24:15;9.50;99.90
8593;DHT22;4334;49.982;8.398;2022-11-04T07:26:42;9.50;99.90
8593;DHT22;4334;49.982;8.398;2022-11-04T07:29:09;9.60;99.90
8593;DHT22;4334;49.982;8.398;2022-11-04T07:31:37;9.60;99.90
8593;DHT22;4334;49.982;8.398;2022-11-04T07:34:09;9.70;99.90
8593;DHT22;4334;49.982;8.398;2022-11-04T07:36:41;9.70;99.90
8593;DHT22;4334;49.982;8.398;2022-11-04T07:39:10;9.80;99.90
8593;DHT22;4334;49.982;8.398;2022-11-04T07:41:41;9.90;99.90
8593;DHT22;4334;49.982;8.398;2022-11-04T07:44:10;10.00;99.90
8593;DHT22;4334;49.982;8.398;2022-11-04T07:47:01;10.00;99.90
8593;DHT22;4334;49.982;8.398;2022-11-04T07:49:38;10.00;99.90
8593;DHT22;4334;49.982;8.398;2022-11-04T07:52:06;10.00;99.90
8593;DHT22;4334;49.982;8.398;2022-11-04T07:54:33;10.10;99.90
8593;DHT22;4334;49.982;8.398;2022-11-04T07:57:00;10.20;99.90
8593;DHT22;4334;49.982;8.398;2022-11-04T07:59:27;10.20;99.90
8593;DHT22;4334;49.982;8.398;2022-11-04T08:01:54;10.30;99.90
8593;DHT22;4334;49.982;8.398;2022-11-04T08:04:21;10.40;99.90
8593;DHT22;4334;49.982;8.398;2022-11-04T08:06:49;10.40;99.90
8593;DHT22;4334;49.982;8.398;2022-11-04T08:09:16;10.40;99.90
8593;DHT22;4334;49.982;8.398;2022-11-04T08:11:43;10.40;99.90
8593;DHT22;4334;49.982;8.398;2022-11-04T08:14:10;10.40;99.90
8593;DHT22;4334;49.982;8.398;2022-11-04T08:16:37;10.40;99.90
8593;DHT22;4334;49.982;8.398;2022-11-04T08:19:04;10.50;99.90
8593;DHT22;4334;49.982;8.398;2022-11-04T08:21:32;10.60;99.90
8593;DHT22;4334;49.982;8.398;2022-11-04T08:24:00;10.60;99.90
8593;DHT22;4334;49.982;8.398;2022-11-04T08:26:30;10.60;99.90
8593;DHT22;4334;49.982;8.398;2022-11-04T08:28:57;10.90;99.90
8593;DHT22;4334;49.982;8.398;2022-11-04T08:31:27;11.10;99.90
8593;DHT22;4334;49.982;8.398;2022-11-04T08:33:55;11.10;99.90
8593;DHT22;4334;49.982;8.398;2022-11-04T08:36:25;13.50;99.90
8593;DHT22;4334;49.982;8.398;2022-11-04T08:38:52;11.20;99.90
8593;DHT22;4334;49.982;8.398;2022-11-04T08:41:23;11.20;99.90
8593;DHT22;4334;49.982;8.398;2022-11-04T08:43:51;11.20;99.90
8593;DHT22;4334;49.982;8.398;2022-11-04T08:46:18;11.30;99.90
8593;DHT22;4334;49.982;8.398;2022-11-04T08:48:48;11.50;99.90
8593;DHT22;4334;49.982;8.398;2022-11-04T08:51:21;12.70;99.90
8593;DHT22;4334;49.982;8.398;2022-11-04T08:53:48;11.90;99.90
8593;DHT22;4334;49.982;8.398;2022-11-04T08:56:18;12.10;99.90
8593;DHT22;4334;49.982;8.398;2022-11-04T08:58:47;12.40;99.90
8593;DHT22;4334;49.982;8.398;2022-11-04T09:01:14;12.40;99.90
8593;DHT22;4334;49.982;8.398;2022-11-04T09:03:44;12.50;99.90
8593;DHT22;4334;49.982;8.398;2022-11-04T09:06:15;12.70;99.90
8593;DHT22;4334;49.982;8.398;2022-11-04T09:08:43;12.60;99.90
8593;DHT22;4334;49.982;8.398;2022-11-04T09:11:12;12.50;99.90
8593;DHT22;4334;49.982;8.398;2022-11-04T09:13:40;12.50;99.90
8593;DHT22;4334;49.982;8.398;2022-11-04T09:16:09;12.20;99.90
8593;DHT22;4334;49.982;8.398;2022-11-04T09:18:37;12.20;99.90
8593;DHT22;4334;49.982;8.398;2022-11-04T09:21:06;12.30;99.90
8593;DHT22;4334;49.982;8.398;2022-11-04T09:23:33;13.60;99.90
8593;DHT22;4334;49.982;8.398;2022-11-04T09:26:04;12.20;99.90
8593;DHT22;4334;49.982;8.398;2022-11-04T09:28:31;12.40;99.90
8593;DHT22;4334;49.982;8.398;2022-11-04T09:30:58;12.20;99.90
8593;DHT22;4334;49.982;8.398;2022-11-04T09:33:26;12.40;99.90
8593;DHT22;4334;49.982;8.398;2022-11-04T09:35:54;12.50;99.90
8593;DHT22;4334;49.982;8.398;2022-11-04T09:38:22;12.60;99.90
8593;DHT22;4334;49.982;8.398;2022-11-04T09:40:50;12.80;99.90
8593;DHT22;4334;49.982;8.398;2022-11-04T09:43:27;12.80;99.90
8593;DHT22;4334;49.982;8.398;2022-11-04T09:45:57;12.90;99.90
8593;DHT22;4334;49.982;8.398;2022-11-04T09:48:30;12.80;99.90
8593;DHT22;4334;49.982;8.398;2022-11-04T09:51:00;12.80;99.90
8593;DHT22;4334;49.982;8.398;2022-11-04T09:53:36;12.70;99.90
8593;DHT22;4334;49.982;8.398;2022-11-04T09:56:09;12.80;99.90
8593;DHT22;4334;49.982;8.398;2022-11-04T09:58:38;15.70;99.90
8593;DHT22;4334;49.982;8.398;2022-11-04T10:01:14;12.60;99.90
8593;DHT22;4334;49.982;8.398;2022-11-04T10:03:58;12.50;99.90
8593;DHT22;4334;49.982;8.398;2022-11-04T10:06:34;12.70;99.90
8593;DHT22;4334;49.982;8.398;2022-11-04T10:09:10;12.70;99.90
8593;DHT22;4334;49.982;8.398;2022-11-04T10:11:50;15.30;99.90
8593;DHT22;4334;49.982;8.398;2022-11-04T10:17:42;14.30;99.90
8593;DHT22;4334;49.982;8.398;2022-11-04T10:20:21;14.20;99.90
8593;DHT22;4334;49.982;8.398;2022-11-04T10:22:56;14.00;99.90
8593;DHT22;4334;49.982;8.398;2022-11-04T10:25:29;14.40;99.90
8593;DHT22;4334;49.982;8.398;2022-11-04T10:28:01;15.80;99.90
8593;DHT22;4334;49.982;8.398;2022-11-04T10:30:31;14.80;99.90
8593;DHT22;4334;49.982;8.398;2022-11-04T10:33:04;14.70;99.90
8593;DHT22;4334;49.982;8.398;2022-11-04T10:35:41;15.20;99.90
8593;DHT22;4334;49.982;8.398;2022-11-04T10:38:18;14.40;99.90
8593;DHT22;4334;49.982;8.398;2022-11-04T10:40:48;14.40;99.90
8593;DHT22;4334;49.982;8.398;2022-11-04T10:43:20;14.90;99.90
8593;DHT22;4334;49.982;8.398;2022-11-04T10:45:58;15.70;99.90
8593;DHT22;4334;49.982;8.398;2022-11-04T10:48:31;16.50;99.90
8593;DHT22;4334;49.982;8.398;2022-11-04T10:51:04;16.10;99.90
8593;DHT22;4334;49.982;8.398;2022-11-04T10:53:32;15.20;99.90
8593;DHT22;4334;49.982;8.398;2022-11-04T10:56:05;15.10;99.90
8593;DHT22;4334;49.982;8.398;2022-11-04T10:58:38;15.00;99.90
8593;DHT22;4334;49.982;8.398;2022-11-04T11:01:25;14.40;99.90
8593;DHT22;4334;49.982;8.398;2022-11-04T11:03:52;14.40;99.90
8593;DHT22;4334;49.982;8.398;2022-11-04T11:06:24;14.60;99.90
8593;DHT22;4334;49.982;8.398;2022-11-04T11:08:54;14.00;99.90
8593;DHT22;4334;49.982;8.398;2022-11-04T11:11:41;14.10;99.90
8593;DHT22;4334;49.982;8.398;2022-11-04T11:14:34;14.50;99.90
8593;DHT22;4334;49.982;8.398;2022-11-04T11:17:34;14.50;99.90
8593;DHT22;4334;49.982;8.398;2022-11-04T11:20:19;14.80;99.90
8593;DHT22;4334;49.982;8.398;2022-11-04T11:22:48;14.60;99.90
8593;DHT22;4334;49.982;8.398;2022-11-04T11:25:22;14.70;99.90
8593;DHT22;4334;49.982;8.398;2022-11-04T11:27:51;14.70;99.90
8593;DHT22;4334;49.982;8.398;2022-11-04T11:30:24;14.60;99.90
8593;DHT22;4334;49.982;8.398;2022-11-04T11:32:53;14.50;99.90
8593;DHT22;4334;49.982;8.398;2022-11-04T11:35:26;14.70;99.90
8593;DHT22;4334;49.982;8.398;2022-11-04T11:37:56;15.30;99.90
8593;DHT22;4334;49.982;8.398;2022-11-04T11:40:29;16.10;99.90
8593;DHT22;4334;49.982;8.398;2022-11-04T11:42:59;16.90;99.90
8593;DHT22;4334;49.982;8.398;2022-11-04T11:45:27;16.60;99.90
8593;DHT22;4334;49.982;8.398;2022-11-04T11:47:55;16.10;99.90
8593;DHT22;4334;49.982;8.398;2022-11-04T11:50:24;15.70;99.90
8593;DHT22;4334;49.982;8.398;2022-11-04T11:53:16;15.90;99.90
8593;DHT22;4334;49.982;8.398;2022-11-04T11:55:51;15.50;99.90
8593;DHT22;4334;49.982;8.398;2022-11-04T11:58:28;15.40;99.90
8593;DHT22;4334;49.982;8.398;2022-11-04T12:00:59;15.40;99.90
8593;DHT22;4334;49.982;8.398;2022-11-04T12:03:31;15.40;99.90
8593;DHT22;4334;49.982;8.398;2022-11-04T12:06:15;15.30;99.90
8593;DHT22;4334;49.982;8.398;2022-11-04T12:09:07;16.00;99.90
8593;DHT22;4334;49.982;8.398;2022-11-04T12:11:48;15.10;99.90
8593;DHT22;4334;49.982;8.398;2022-11-04T12:14:23;15.10;99.90
8593;DHT22;4334;49.982;8.398;2022-11-04T12:16:59;15.00;99.90
8593;DHT22;4334;49.982;8.398;2022-11-04T12:19:43;15.00;99.90
8593;DHT22;4334;49.982;8.398;2022-11-04T12:22:27;14.80;99.90
8593;DHT22;4334;49.982;8.398;2022-11-04T12:28:09;14.50;99.90
8593;DHT22;4334;49.982;8.398;2022-11-04T12:30:48;14.50;99.90
8593;DHT22;4334;49.982;8.398;2022-11-04T12:33:29;14.50;99.90
8593;DHT22;4334;49.982;8.398;2022-11-04T12:36:30;14.60;99.90
8593;DHT22;4334;49.982;8.398;2022-11-04T12:39:12;15.80;99.90
8593;DHT22;4334;49.982;8.398;2022-11-04T12:41:51;16.60;99.90
8593;DHT22;4334;49.982;8.398;2022-11-04T12:44:28;17.50;99.90
8593;DHT22;4334;49.982;8.398;2022-11-04T12:47:05;17.40;99.90
8593;DHT22;4334;49.982;8.398;2022-11-04T12:49:58;17.00;99.90
8593;DHT22;4334;49.982;8.398;2022-11-04T12:52:54;17.10;99.90
8593;DHT22;4334;49.982;8.398;2022-11-04T12:55:34;17.10;99.90
8593;DHT22;4334;49.982;8.398;2022-11-04T12:58:22;16.70;99.90
8593;DHT22;4334;49.982;8.398;2022-11-04T13:01:04;16.50;99.90
8593;DHT22;4334;49.982;8.398;2022-11-04T13:03:39;16.70;99.90
8593;DHT22;4334;49.982;8.398;2022-11-04T13:06:32;16.50;99.90
8593;DHT22;4334;49.982;8.398;2022-11-04T13:09:05;16.20;99.90
8593;DHT22;4334;49.982;8.398;2022-11-04T13:11:39;16.00;99.90
8593;DHT22;4334;49.982;8.398;2022-11-04T13:14:17;15.90;99.90
8593;DHT22;4334;49.982;8.398;2022-11-04T13:17:05;15.60;99.90
8593;DHT22;4334;49.982;8.398;2022-11-04T13:19:36;15.70;99.90
8593;DHT22;4334;49.982;8.398;2022-11-04T13:22:10;19.40;99.90
8593;DHT22;4334;49.982;8.398;2022-11-04T13:24:45;16.50;99.90
8593;DHT22;4334;49.982;8.398;2022-11-04T13:27:18;16.50;99.90
8593;DHT22;4334;49.982;8.398;2022-11-04T13:33:45;15.00;99.90
8593;DHT22;4334;49.982;8.398;2022-11-04T13:36:23;14.20;99.90
8593;DHT22;4334;49.982;8.398;2022-11-04T13:38:55;14.30;99.90
8593;DHT22;4334;49.982;8.398;2022-11-04T13:44:19;13.90;99.90
8593;DHT22;4334;49.982;8.398;2022-11-04T13:46:51;13.90;99.90
8593;DHT22;4334;49.982;8.398;2022-11-04T13:49:23;13.90;99.90
8593;DHT22;4334;49.982;8.398;2022-11-04T13:52:04;14.20;99.90
8593;DHT22;4334;49.982;8.398;2022-11-04T13:54:35;15.00;99.90
8593;DHT22;4334;49.982;8.398;2022-11-04T13:57:05;15.40;99.90
8593;DHT22;4334;49.982;8.398;2022-11-04T13:59:33;15.30;99.90
8593;DHT22;4334;49.982;8.398;2022-11-04T14:08:19;15.10;99.90
8593;DHT22;4334;49.982;8.398;2022-11-04T14:11:05;15.30;99.90
8593;DHT22;4334;49.982;8.398;2022-11-04T14:13:46;14.70;99.90
8593;DHT22;4334;49.982;8.398;2022-11-04T14:16:41;14.60;99.90
8593;DHT22;4334;49.982;8.398;2022-11-04T14:22:25;14.00;99.90
8593;DHT22;4334;49.982;8.398;2022-11-04T14:24:58;13.80;99.90
8593;DHT22;4334;49.982;8.398;2022-11-04T14:27:32;15.60;99.90
8593;DHT22;4334;49.982;8.398;2022-11-04T14:30:00;13.50;99.90
8593;DHT22;4334;49.982;8.398;2022-11-04T14:32:32;13.50;99.90
8593;DHT22;4334;49.982;8.398;2022-11-04T14:35:03;16.00;99.90
8593;DHT22;4334;49.982;8.398;2022-11-04T14:37:33;13.70;99.90
8593;DHT22;4334;49.982;8.398;2022-11-04T14:40:05;13.80;99.90
8593;DHT22;4334;49.982;8.398;2022-11-04T14:43:01;13.70;99.90
8593;DHT22;4334;49.982;8.398;2022-11-04T14:45:36;13.60;99.90
8593;DHT22;4334;49.982;8.398;2022-11-04T14:48:12;13.50;99.90
8593;DHT22;4334;49.982;8.398;2022-11-04T14:50:42;13.40;99.90
8593;DHT22;4334;49.982;8.398;2022-11-04T14:53:18;13.40;99.90
8593;DHT22;4334;49.982;8.398;2022-11-04T14:56:02;13.40;99.90
8593;DHT22;4334;49.982;8.398;2022-11-04T14:58:29;13.40;99.90
8593;DHT22;4334;49.982;8.398;2022-11-04T15:00:57;13.20;99.90
8593;DHT22;4334;49.982;8.398;2022-11-04T15:03:26;13.20;99.90
8593;DHT22;4334;49.982;8.398;2022-11-04T15:05:57;13.10;99.90
8593;DHT22;4334;49.982;8.398;2022-11-04T15:08:30;16.50;99.90
8593;DHT22;4334;49.982;8.398;2022-11-04T15:11:03;12.90;99.90
8593;DHT22;4334;49.982;8.398;2022-11-04T15:13:35;13.00;99.90
8593;DHT22;4334;49.982;8.398;2022-11-04T15:16:08;12.80;99.90
8593;DHT22;4334;49.982;8.398;2022-11-04T15:18:37;12.80;99.90
8593;DHT22;4334;49.982;8.398;2022-11-04T15:21:06;12.70;99.90
8593;DHT22;4334;49.982;8.398;2022-11-04T15:23:35;12.60;99.90
8593;DHT22;4334;49.982;8.398;2022-11-04T15:26:05;12.50;99.90
8593;DHT22;4334;49.982;8.398;2022-11-04T15:28:34;12.50;99.90
8593;DHT22;4334;49.982;8.398;2022-11-04T15:31:06;12.50;99.90
8593;DHT22;4334;49.982;8.398;2022-11-04T15:33:38;12.50;99.90
8593;DHT22;4334;49.982;8.398;2022-11-04T15:36:08;12.40;99.90
8593;DHT22;4334;49.982;8.398;2022-11-04T15:38:38;12.30;99.90
8593;DHT22;4334;49.982;8.398;2022-11-04T15:41:08;12.30;99.90
8593;DHT22;4334;49.982;8.398;2022-11-04T15:43:53;12.30;99.90
8593;DHT22;4334;49.982;8.398;2022-11-04T15:46:21;12.30;99.90
8593;DHT22;4334;49.982;8.398;2022-11-04T15:49:01;12.20;99.90
8593;DHT22;4334;49.982;8.398;2022-11-04T15:51:30;12.20;99.90
8593;DHT22;4334;49.982;8.398;2022-11-04T15:54:02;12.10;99.90
8593;DHT22;4334;49.982;8.398;2022-11-04T15:56:34;12.00;99.90
8593;DHT22;4334;49.982;8.398;2022-11-04T15:59:08;11.90;99.90
8593;DHT22;4334;49.982;8.398;2022-11-04T16:01:44;11.80;99.90
8593;DHT22;4334;49.982;8.398;2022-11-04T16:04:12;11.80;99.90
8593;DHT22;4334;49.982;8.398;2022-11-04T16:06:41;11.70;99.90
8593;DHT22;4334;49.982;8.398;2022-11-04T16:09:21;11.50;99.90
8593;DHT22;4334;49.982;8.398;2022-11-04T16:12:13;11.40;99.90
8593;DHT22;4334;49.982;8.398;2022-11-04T16:25:56;11.30;99.90
8593;DHT22;4334;49.982;8.398;2022-11-04T16:28:27;11.40;99.90
8593;DHT22;4334;49.982;8.398;2022-11-04T16:30:56;11.30;99.90
8593;DHT22;4334;49.982;8.398;2022-11-04T16:33:23;11.30;99.90
8593;DHT22;4334;49.982;8.398;2022-11-04T16:35:49;11.30;99.90
8593;DHT22;4334;49.982;8.398;2022-11-04T16:38:16;11.20;99.90
8593;DHT22;4334;49.982;8.398;2022-11-04T16:40:46;15.10;99.90
8593;DHT22;4334;49.982;8.398;2022-11-04T16:43:14;11.10;99.90
8593;DHT22;4334;49.982;8.398;2022-11-04T16:45:45;11.00;99.90
8593;DHT22;4334;49.982;8.398;2022-11-04T16:48:13;10.90;99.90
8593;DHT22;4334;49.982;8.398;2022-11-04T16:50:41;10.90;99.90
8593;DHT22;4334;49.982;8.398;2022-11-04T16:53:08;10.90;99.90
8593;DHT22;4334;49.982;8.398;2022-11-04T16:55:38;10.90;99.90
8593;DHT22;4334;49.982;8.398;2022-11-04T16:58:06;10.90;99.90
8593;DHT22;4334;49.982;8.398;2022-11-04T17:11:55;10.90;99.90
8593;DHT22;4334;49.982;8.398;2022-11-04T17:14:22;11.00;99.90
8593;DHT22;4334;49.982;8.398;2022-11-04T17:16:49;11.00;99.90
8593;DHT22;4334;49.982;8.398;2022-11-04T17:19:19;11.00;99.90
8593;DHT22;4334;49.982;8.398;2022-11-04T17:21:45;11.10;99.90
8593;DHT22;4334;49.982;8.398;2022-11-04T17:24:12;11.10;99.90
8593;DHT22;4334;49.982;8.398;2022-11-04T17:26:39;11.20;99.90